Bookmark and Share
Track history (hours):
 

Galileo

Last reported at 2014-Apr-24 19:33 UTC. Time now 2014-Apr-24 20:10 UTC.
Position N 37°56' E 023°39'.

Length 40 m; draft 3 m.

Type: Passenger vessel. MMSI: 239299000.

NotesDate/timePositionNaut miles runAvg speedWind from/ knotsBaromVisibWave heightAir tempDewpointWater temp
2014-Apr-24 19:33N 37°56' E 023°39'0 0.0
2014-Apr-24 18:33N 37°56' E 023°39'0 0.0
2014-Apr-24 17:33N 37°56' E 023°39'5 4.8
2014-Apr-24 16:33N 37°52' E 023°35'13 9.2
2014-Apr-24 15:11N 37°52' E 023°19'  
2014-Apr-18 19:18N 37°47' E 023°38'7 9.3
2014-Apr-18 18:32N 37°54' E 023°39'2 1.8
2014-Apr-18 17:33N 37°56' E 023°39'0 0.0
2014-Apr-18 16:33N 37°56' E 023°39'0 0.0
2014-Apr-18 15:33N 37°56' E 023°39'0 0.0
2014-Apr-18 14:33N 37°56' E 023°39'0 0.0
2014-Apr-18 13:33N 37°56' E 023°39'0 0.0
2014-Apr-18 12:33N 37°56' E 023°39'0 0.0
2014-Apr-18 11:34N 37°56' E 023°39'0 0.0
2014-Apr-18 10:33N 37°56' E 023°39'0 0.0
2014-Apr-18 09:33N 37°56' E 023°39'0 0.0
2014-Apr-18 08:33N 37°56' E 023°39'0 0.4
2014-Apr-18 07:33N 37°56' E 023°39'0 0.4
2014-Apr-18 06:33N 37°56' E 023°39'0 0.0
2014-Apr-18 05:32N 37°56' E 023°39'0 0.0
2014-Apr-18 04:32N 37°56' E 023°39'0 0.0
2014-Apr-18 03:33N 37°56' E 023°39'0 0.0
2014-Apr-18 02:33N 37°56' E 023°39'0 0.0
2014-Apr-18 01:33N 37°56' E 023°39'0 0.0
2014-Apr-18 00:33N 37°56' E 023°39'0 0.0
2014-Apr-17 23:33N 37°56' E 023°39'0 0.0
2014-Apr-17 22:33N 37°56' E 023°39'0 0.0
2014-Apr-17 21:33N 37°56' E 023°39'0 0.0
2014-Apr-17 20:33N 37°56' E 023°39'0 0.0
2014-Apr-17 19:33N 37°56' E 023°39'0 0.0
2014-Apr-17 18:34N 37°56' E 023°39'0 0.0
2014-Apr-17 17:33N 37°56' E 023°39'0 0.0
2014-Apr-17 16:33N 37°56' E 023°39'0 0.0
2014-Apr-17 15:33N 37°56' E 023°39'0 0.0
2014-Apr-17 14:33N 37°56' E 023°39'0 0.0
2014-Apr-17 13:33N 37°56' E 023°39'0 0.0
2014-Apr-17 12:33N 37°56' E 023°39'0 0.0
2014-Apr-17 11:32N 37°56' E 023°39'0 0.0
2014-Apr-17 10:33N 37°56' E 023°39'0 0.0
2014-Apr-17 09:33N 37°56' E 023°39'0 0.0
2014-Apr-17 08:33N 37°56' E 023°39'0 0.0
2014-Apr-17 07:32N 37°56' E 023°39'0 0.0
2014-Apr-17 06:33N 37°56' E 023°39'0 0.0
2014-Apr-17 05:33N 37°56' E 023°39'0 0.0
2014-Apr-17 04:33N 37°56' E 023°39'0 0.0
2014-Apr-17 03:33N 37°56' E 023°39'0 0.0
2014-Apr-17 02:33N 37°56' E 023°39'0 0.0
2014-Apr-17 01:31N 37°56' E 023°39'0 0.0
2014-Apr-17 00:33N 37°56' E 023°39'0 0.0
2014-Apr-16 23:33N 37°56' E 023°39'0 0.0
2014-Apr-16 22:30N 37°56' E 023°39'0 0.0
2014-Apr-16 21:32N 37°56' E 023°39'0 0.0
2014-Apr-16 20:32N 37°56' E 023°39'0 0.0
2014-Apr-16 19:31N 37°56' E 023°39'0 0.0
2014-Apr-16 18:32N 37°56' E 023°39'0 0.0
2014-Apr-16 17:32N 37°56' E 023°39'0 0.0
2014-Apr-16 16:33N 37°56' E 023°39'0 0.0
2014-Apr-16 15:33N 37°56' E 023°39'0 0.0
2014-Apr-16 14:33N 37°56' E 023°39'0 0.0
2014-Apr-16 13:33N 37°56' E 023°39'0 0.0
2014-Apr-16 12:33N 37°56' E 023°39'0 0.0
2014-Apr-16 11:33N 37°56' E 023°39'0 0.0
2014-Apr-16 10:33N 37°56' E 023°39'0 0.0
2014-Apr-16 09:33N 37°56' E 023°39'0 0.0
2014-Apr-16 08:33N 37°56' E 023°39'0 0.0
2014-Apr-16 07:33N 37°56' E 023°39'0 0.0
2014-Apr-16 06:24N 37°56' E 023°39'0 0.0
2014-Apr-16 05:33N 37°56' E 023°39'0 0.0
2014-Apr-16 04:30N 37°56' E 023°39'0 0.0
2014-Apr-16 03:24N 37°56' E 023°39'0 0.0
2014-Apr-16 02:30N 37°56' E 023°39'0 0.0
2014-Apr-16 01:27N 37°56' E 023°39'0 0.0
2014-Apr-16 00:27N 37°56' E 023°39'0 0.0
2014-Apr-15 22:33N 37°56' E 023°39'0 0.0
2014-Apr-15 20:18N 37°56' E 023°39'0 0.0
2014-Apr-15 19:27N 37°56' E 023°39'0 0.0
2014-Apr-15 18:27N 37°56' E 023°39'0 0.0
2014-Apr-15 17:30N 37°56' E 023°39'0 0.0
2014-Apr-15 16:27N 37°56' E 023°39'0 0.0
2014-Apr-15 15:24N 37°56' E 023°39'0 0.0
2014-Apr-15 10:30N 37°56' E 023°39'0 0.0
2014-Apr-15 08:33N 37°56' E 023°39'0 0.0
2014-Apr-15 06:33N 37°56' E 023°39'0 0.0
2014-Apr-15 05:33N 37°56' E 023°39'0 0.0
2014-Apr-15 02:33N 37°56' E 023°39'0 0.0
2014-Apr-15 01:30N 37°56' E 023°39'0 0.0
2014-Apr-15 00:30N 37°56' E 023°39'0 0.0
2014-Apr-14 23:29N 37°56' E 023°39'  

Dump ship's entire track history

sailing weather and tide predictions

Galileo — SX2040 — position and weather